sensor_id;sensor_type;location;lat;lon;timestamp;noise_LAeq;noise_LA_min;noise_LA_max;noise_LA01;noise_LA95
69615;Laerm;56821;52.486;4.680;2023-04-19T00:00:04;35.44;32.83;40.68;;
69615;Laerm;56821;52.486;4.680;2023-04-19T00:00:17;33.34;31.19;44.41;;
69615;Laerm;56821;52.486;4.680;2023-04-19T00:00:29;34.34;31.77;38.02;;
69615;Laerm;56821;52.486;4.680;2023-04-19T00:00:40;33.13;31.07;35.17;;
69615;Laerm;56821;52.486;4.680;2023-04-19T00:00:50;32.90;30.61;37.12;;
69615;Laerm;56821;52.486;4.680;2023-04-19T00:01:01;33.18;30.99;35.72;;
69615;Laerm;56821;52.486;4.680;2023-04-19T00:01:11;33.50;31.29;36.75;;
69615;Laerm;56821;52.486;4.680;2023-04-19T00:01:21;33.62;31.11;37.40;;
69615;Laerm;56821;52.486;4.680;2023-04-19T00:01:32;33.79;31.45;38.29;;
69615;Laerm;56821;52.486;4.680;2023-04-19T00:01:42;33.31;31.10;36.32;;
69615;Laerm;56821;52.486;4.680;2023-04-19T00:01:53;33.48;30.95;36.36;;
69615;Laerm;56821;52.486;4.680;2023-04-19T00:02:03;32.18;29.71;34.66;;
69615;Laerm;56821;52.486;4.680;2023-04-19T00:02:13;31.25;29.70;33.04;;
69615;Laerm;56821;52.486;4.680;2023-04-19T00:02:23;31.36;29.53;33.68;;
69615;Laerm;56821;52.486;4.680;2023-04-19T00:02:34;32.87;29.98;38.04;;
69615;Laerm;56821;52.486;4.680;2023-04-19T00:02:45;32.57;30.55;36.77;;
69615;Laerm;56821;52.486;4.680;2023-04-19T00:02:58;36.61;32.28;40.04;;
69615;Laerm;56821;52.486;4.680;2023-04-19T00:03:09;37.72;34.85;42.00;;
69615;Laerm;56821;52.486;4.680;2023-04-19T00:03:20;33.77;29.81;38.85;;
69615;Laerm;56821;52.486;4.680;2023-04-19T00:03:33;31.93;30.21;35.23;;
69615;Laerm;56821;52.486;4.680;2023-04-19T00:03:43;31.76;29.98;34.21;;
69615;Laerm;56821;52.486;4.680;2023-04-19T00:03:54;32.14;30.22;35.05;;
69615;Laerm;56821;52.486;4.680;2023-04-19T00:04:05;33.23;30.66;37.44;;
69615;Laerm;56821;52.486;4.680;2023-04-19T00:04:17;34.70;31.31;39.52;;
69615;Laerm;56821;52.486;4.680;2023-04-19T00:04:29;34.35;31.86;37.67;;
69615;Laerm;56821;52.486;4.680;2023-04-19T00:04:40;32.34;30.16;35.05;;
69615;Laerm;56821;52.486;4.680;2023-04-19T00:04:50;31.99;30.52;34.36;;
69615;Laerm;56821;52.486;4.680;2023-04-19T00:05:02;34.22;31.06;39.19;;
69615;Laerm;56821;52.486;4.680;2023-04-19T00:05:12;32.55;30.68;34.72;;
69615;Laerm;56821;52.486;4.680;2023-04-19T00:05:24;34.76;31.92;38.98;;
69615;Laerm;56821;52.486;4.680;2023-04-19T00:05:35;36.46;32.99;40.79;;
69615;Laerm;56821;52.486;4.680;2023-04-19T00:05:47;35.86;33.42;41.05;;
69615;Laerm;56821;52.486;4.680;2023-04-19T00:05:57;37.37;33.36;43.03;;
69615;Laerm;56821;52.486;4.680;2023-04-19T00:06:08;37.15;33.17;44.87;;
69615;Laerm;56821;52.486;4.680;2023-04-19T00:06:19;37.68;33.12;43.57;;
69615;Laerm;56821;52.486;4.680;2023-04-19T00:06:30;35.78;32.54;41.27;;
69615;Laerm;56821;52.486;4.680;2023-04-19T00:06:40;35.33;32.25;39.83;;
69615;Laerm;56821;52.486;4.680;2023-04-19T00:06:51;34.28;31.52;38.25;;
69615;Laerm;56821;52.486;4.680;2023-04-19T00:07:01;34.83;31.63;39.49;;
69615;Laerm;56821;52.486;4.680;2023-04-19T00:07:12;34.30;30.95;38.33;;
69615;Laerm;56821;52.486;4.680;2023-04-19T00:07:22;35.34;32.25;39.45;;
69615;Laerm;56821;52.486;4.680;2023-04-19T00:07:33;34.44;31.96;39.26;;
69615;Laerm;56821;52.486;4.680;2023-04-19T00:07:43;34.76;32.15;41.40;;
69615;Laerm;56821;52.486;4.680;2023-04-19T00:07:53;33.75;31.58;37.48;;
69615;Laerm;56821;52.486;4.680;2023-04-19T00:08:06;33.97;32.12;36.37;;
69615;Laerm;56821;52.486;4.680;2023-04-19T00:08:17;33.71;31.26;41.82;;
69615;Laerm;56821;52.486;4.680;2023-04-19T00:08:27;35.44;32.57;37.64;;
69615;Laerm;56821;52.486;4.680;2023-04-19T00:08:37;36.59;33.45;39.64;;
69615;Laerm;56821;52.486;4.680;2023-04-19T00:08:47;34.58;32.79;36.42;;
69615;Laerm;56821;52.486;4.680;2023-04-19T00:08:57;35.44;32.00;41.72;;
69615;Laerm;56821;52.486;4.680;2023-04-19T00:09:08;33.50;31.35;35.88;;
69615;Laerm;56821;52.486;4.680;2023-04-19T00:09:18;33.15;31.20;35.33;;
69615;Laerm;56821;52.486;4.680;2023-04-19T00:09:28;33.13;30.70;34.80;;
69615;Laerm;56821;52.486;4.680;2023-04-19T00:09:38;33.56;31.48;35.82;;
69615;Laerm;56821;52.486;4.680;2023-04-19T00:09:48;35.57;32.55;43.46;;
69615;Laerm;56821;52.486;4.680;2023-04-19T00:09:59;36.38;33.79;41.79;;
69615;Laerm;56821;52.486;4.680;2023-04-19T00:10:09;34.48;32.43;37.42;;
69615;Laerm;56821;52.486;4.680;2023-04-19T00:10:19;33.92;31.80;36.57;;
69615;Laerm;56821;52.486;4.680;2023-04-19T00:10:29;34.29;32.14;37.19;;
69615;Laerm;56821;52.486;4.680;2023-04-19T00:10:40;34.05;31.79;37.59;;
69615;Laerm;56821;52.486;4.680;2023-04-19T00:10:50;34.64;32.08;38.77;;
69615;Laerm;56821;52.486;4.680;2023-04-19T00:11:00;36.06;33.33;39.31;;
69615;Laerm;56821;52.486;4.680;2023-04-19T00:11:11;36.05;33.49;39.32;;
69615;Laerm;56821;52.486;4.680;2023-04-19T00:11:21;35.88;33.19;40.68;;
69615;Laerm;56821;52.486;4.680;2023-04-19T00:11:31;33.50;31.33;36.09;;
69615;Laerm;56821;52.486;4.680;2023-04-19T00:11:41;33.93;32.02;36.68;;
69615;Laerm;56821;52.486;4.680;2023-04-19T00:11:52;37.24;33.57;41.96;;
69615;Laerm;56821;52.486;4.680;2023-04-19T00:12:02;36.94;33.76;38.88;;
69615;Laerm;56821;52.486;4.680;2023-04-19T00:12:12;34.58;31.98;40.04;;
69615;Laerm;56821;52.486;4.680;2023-04-19T00:12:22;32.87;31.18;34.74;;
69615;Laerm;56821;52.486;4.680;2023-04-19T00:12:33;33.18;31.09;37.13;;
69615;Laerm;56821;52.486;4.680;2023-04-19T00:12:43;32.81;30.49;37.21;;
69615;Laerm;56821;52.486;4.680;2023-04-19T00:12:53;32.80;31.07;34.48;;
69615;Laerm;56821;52.486;4.680;2023-04-19T00:13:03;40.29;31.89;57.63;;
69615;Laerm;56821;52.486;4.680;2023-04-19T00:13:14;37.68;33.80;41.77;;
69615;Laerm;56821;52.486;4.680;2023-04-19T00:13:24;39.27;36.98;42.53;;
69615;Laerm;56821;52.486;4.680;2023-04-19T00:13:35;38.12;35.52;40.55;;
69615;Laerm;56821;52.486;4.680;2023-04-19T00:13:45;38.78;35.51;43.24;;
69615;Laerm;56821;52.486;4.680;2023-04-19T00:13:55;37.74;35.62;42.75;;
69615;Laerm;56821;52.486;4.680;2023-04-19T00:14:05;35.48;33.41;37.73;;
69615;Laerm;56821;52.486;4.680;2023-04-19T00:14:15;35.03;33.29;38.77;;
69615;Laerm;56821;52.486;4.680;2023-04-19T00:14:26;34.61;32.69;37.27;;
69615;Laerm;56821;52.486;4.680;2023-04-19T00:14:36;36.03;32.88;45.33;;
69615;Laerm;56821;52.486;4.680;2023-04-19T00:14:46;36.17;33.48;44.80;;
69615;Laerm;56821;52.486;4.680;2023-04-19T00:14:56;37.04;33.69;43.16;;
69615;Laerm;56821;52.486;4.680;2023-04-19T00:15:07;40.20;37.30;44.09;;
69615;Laerm;56821;52.486;4.680;2023-04-19T00:15:17;37.52;33.40;44.60;;
69615;Laerm;56821;52.486;4.680;2023-04-19T00:15:27;35.77;32.92;42.69;;
69615;Laerm;56821;52.486;4.680;2023-04-19T00:15:38;35.93;33.45;39.69;;
69615;Laerm;56821;52.486;4.680;2023-04-19T00:15:48;37.69;34.54;41.54;;
69615;Laerm;56821;52.486;4.680;2023-04-19T00:15:58;36.92;34.43;41.57;;
69615;Laerm;56821;52.486;4.680;2023-04-19T00:16:08;37.13;34.39;40.68;;
69615;Laerm;56821;52.486;4.680;2023-04-19T00:16:18;37.32;33.97;40.41;;
69615;Laerm;56821;52.486;4.680;2023-04-19T00:16:29;34.00;31.83;41.22;;
69615;Laerm;56821;52.486;4.680;2023-04-19T00:16:39;34.42;32.15;37.34;;
69615;Laerm;56821;52.486;4.680;2023-04-19T00:16:50;35.36;31.88;38.33;;
69615;Laerm;56821;52.486;4.680;2023-04-19T00:17:00;34.70;30.80;37.93;;
69615;Laerm;56821;52.486;4.680;2023-04-19T00:17:10;33.10;31.32;36.27;;
69615;Laerm;56821;52.486;4.680;2023-04-19T00:17:21;33.27;30.99;36.75;;
69615;Laerm;56821;52.486;4.680;2023-04-19T00:17:32;33.55;30.96;37.23;;
69615;Laerm;56821;52.486;4.680;2023-04-19T00:17:42;32.90;30.86;36.48;;
69615;Laerm;56821;52.486;4.680;2023-04-19T00:17:52;33.54;30.91;39.10;;
69615;Laerm;56821;52.486;4.680;2023-04-19T00:18:02;34.59;32.22;36.98;;
69615;Laerm;56821;52.486;4.680;2023-04-19T00:18:13;36.40;34.34;38.71;;
69615;Laerm;56821;52.486;4.680;2023-04-19T00:18:23;37.08;34.35;40.13;;
69615;Laerm;56821;52.486;4.680;2023-04-19T00:18:33;34.31;31.92;36.99;;
69615;Laerm;56821;52.486;4.680;2023-04-19T00:18:43;34.27;32.20;39.85;;
69615;Laerm;56821;52.486;4.680;2023-04-19T00:18:55;35.83;32.79;41.50;;
69615;Laerm;56821;52.486;4.680;2023-04-19T00:19:05;38.47;34.54;45.61;;
69615;Laerm;56821;52.486;4.680;2023-04-19T00:19:16;36.76;33.27;42.24;;
69615;Laerm;56821;52.486;4.680;2023-04-19T00:19:26;35.37;32.67;39.37;;
69615;Laerm;56821;52.486;4.680;2023-04-19T00:19:36;38.73;34.71;43.64;;
69615;Laerm;56821;52.486;4.680;2023-04-19T00:19:47;37.16;32.50;44.15;;
69615;Laerm;56821;52.486;4.680;2023-04-19T00:19:57;35.86;32.96;42.93;;
69615;Laerm;56821;52.486;4.680;2023-04-19T00:20:07;36.92;34.75;39.73;;
69615;Laerm;56821;52.486;4.680;2023-04-19T00:20:19;40.01;35.74;43.80;;
69615;Laerm;56821;52.486;4.680;2023-04-19T00:20:29;36.51;34.68;39.71;;
69615;Laerm;56821;52.486;4.680;2023-04-19T00:20:40;35.81;32.06;41.49;;
69615;Laerm;56821;52.486;4.680;2023-04-19T00:20:50;33.70;31.55;36.64;;
69615;Laerm;56821;52.486;4.680;2023-04-19T00:21:00;33.51;31.20;36.08;;
69615;Laerm;56821;52.486;4.680;2023-04-19T00:21:11;32.02;30.12;34.57;;
69615;Laerm;56821;52.486;4.680;2023-04-19T00:21:22;32.04;29.98;34.97;;
69615;Laerm;56821;52.486;4.680;2023-04-19T00:21:32;34.32;30.97;40.24;;
69615;Laerm;56821;52.486;4.680;2023-04-19T00:21:42;32.31;29.87;34.81;;
69615;Laerm;56821;52.486;4.680;2023-04-19T00:21:52;32.24;29.77;34.52;;
69615;Laerm;56821;52.486;4.680;2023-04-19T00:22:03;32.10;29.86;34.18;;
69615;Laerm;56821;52.486;4.680;2023-04-19T00:22:13;34.97;32.31;40.59;;
69615;Laerm;56821;52.486;4.680;2023-04-19T00:22:23;35.27;33.38;37.82;;
69615;Laerm;56821;52.486;4.680;2023-04-19T00:22:33;34.64;31.47;38.27;;
69615;Laerm;56821;52.486;4.680;2023-04-19T00:22:44;33.94;31.76;36.46;;
69615;Laerm;56821;52.486;4.680;2023-04-19T00:22:54;34.09;31.70;37.96;;
69615;Laerm;56821;52.486;4.680;2023-04-19T00:23:05;34.78;32.65;38.73;;
69615;Laerm;56821;52.486;4.680;2023-04-19T00:23:16;35.76;33.39;40.25;;
69615;Laerm;56821;52.486;4.680;2023-04-19T00:23:26;34.19;32.26;36.73;;
69615;Laerm;56821;52.486;4.680;2023-04-19T00:23:36;34.51;32.77;37.09;;
69615;Laerm;56821;52.486;4.680;2023-04-19T00:23:46;40.01;35.32;48.14;;
69615;Laerm;56821;52.486;4.680;2023-04-19T00:23:57;38.00;33.01;42.47;;
69615;Laerm;56821;52.486;4.680;2023-04-19T00:24:07;36.87;34.43;40.33;;
69615;Laerm;56821;52.486;4.680;2023-04-19T00:24:17;35.19;31.14;40.45;;
69615;Laerm;56821;52.486;4.680;2023-04-19T00:24:27;34.63;31.74;37.11;;
69615;Laerm;56821;52.486;4.680;2023-04-19T00:24:38;32.48;30.49;36.74;;
69615;Laerm;56821;52.486;4.680;2023-04-19T00:24:48;33.55;30.31;52.16;;
69615;Laerm;56821;52.486;4.680;2023-04-19T00:24:58;31.75;29.73;35.74;;
69615;Laerm;56821;52.486;4.680;2023-04-19T00:25:08;33.13;30.68;36.83;;
69615;Laerm;56821;52.486;4.680;2023-04-19T00:25:18;32.18;30.28;34.59;;
69615;Laerm;56821;52.486;4.680;2023-04-19T00:25:28;32.04;30.28;34.41;;
69615;Laerm;56821;52.486;4.680;2023-04-19T00:25:40;31.76;29.81;34.00;;
69615;Laerm;56821;52.486;4.680;2023-04-19T00:25:51;31.89;30.58;33.80;;
69615;Laerm;56821;52.486;4.680;2023-04-19T00:26:01;34.61;30.29;40.28;;
69615;Laerm;56821;52.486;4.680;2023-04-19T00:26:13;35.77;30.94;39.92;;
69615;Laerm;56821;52.486;4.680;2023-04-19T00:26:24;32.90;30.75;36.32;;
69615;Laerm;56821;52.486;4.680;2023-04-19T00:26:35;32.74;30.90;34.56;;
69615;Laerm;56821;52.486;4.680;2023-04-19T00:26:45;34.59;31.95;37.10;;
69615;Laerm;56821;52.486;4.680;2023-04-19T00:26:55;38.39;33.17;48.29;;
69615;Laerm;56821;52.486;4.680;2023-04-19T00:27:06;36.40;33.39;41.09;;
69615;Laerm;56821;52.486;4.680;2023-04-19T00:27:16;34.21;31.56;36.69;;
69615;Laerm;56821;52.486;4.680;2023-04-19T00:27:26;32.33;30.67;34.17;;
69615;Laerm;56821;52.486;4.680;2023-04-19T00:27:37;32.67;30.24;35.33;;
69615;Laerm;56821;52.486;4.680;2023-04-19T00:27:47;35.18;31.57;40.77;;
69615;Laerm;56821;52.486;4.680;2023-04-19T00:27:57;33.58;30.91;36.82;;
69615;Laerm;56821;52.486;4.680;2023-04-19T00:28:07;34.25;31.13;40.83;;
69615;Laerm;56821;52.486;4.680;2023-04-19T00:28:17;32.84;31.06;40.41;;
69615;Laerm;56821;52.486;4.680;2023-04-19T00:28:28;34.77;32.02;38.54;;
69615;Laerm;56821;52.486;4.680;2023-04-19T00:28:38;36.69;33.07;42.67;;
69615;Laerm;56821;52.486;4.680;2023-04-19T00:28:48;38.80;35.22;43.60;;
69615;Laerm;56821;52.486;4.680;2023-04-19T00:28:58;37.59;33.93;42.13;;
69615;Laerm;56821;52.486;4.680;2023-04-19T00:29:08;36.35;33.17;41.19;;
69615;Laerm;56821;52.486;4.680;2023-04-19T00:29:20;33.37;31.12;36.55;;
69615;Laerm;56821;52.486;4.680;2023-04-19T00:29:30;32.59;30.66;34.95;;
69615;Laerm;56821;52.486;4.680;2023-04-19T00:29:40;32.32;30.04;36.41;;
69615;Laerm;56821;52.486;4.680;2023-04-19T00:29:51;33.06;30.55;36.71;;
69615;Laerm;56821;52.486;4.680;2023-04-19T00:30:01;32.17;30.34;35.04;;
69615;Laerm;56821;52.486;4.680;2023-04-19T00:30:11;31.78;29.78;33.73;;
69615;Laerm;56821;52.486;4.680;2023-04-19T00:30:21;31.45;29.50;34.23;;
69615;Laerm;56821;52.486;4.680;2023-04-19T00:30:32;31.20;29.61;34.15;;
69615;Laerm;56821;52.486;4.680;2023-04-19T00:30:42;32.50;29.80;40.04;;
69615;Laerm;56821;52.486;4.680;2023-04-19T00:30:52;35.99;30.08;49.86;;
69615;Laerm;56821;52.486;4.680;2023-04-19T00:31:02;36.81;30.29;51.00;;
69615;Laerm;56821;52.486;4.680;2023-04-19T00:31:12;34.03;30.85;38.81;;
69615;Laerm;56821;52.486;4.680;2023-04-19T00:31:23;34.29;31.77;36.68;;
69615;Laerm;56821;52.486;4.680;2023-04-19T00:31:33;35.98;33.59;38.63;;
69615;Laerm;56821;52.486;4.680;2023-04-19T00:31:43;36.75;32.92;42.48;;
69615;Laerm;56821;52.486;4.680;2023-04-19T00:31:53;38.94;35.04;43.81;;
69615;Laerm;56821;52.486;4.680;2023-04-19T00:32:04;43.38;40.24;48.79;;
69615;Laerm;56821;52.486;4.680;2023-04-19T00:32:14;37.51;32.69;43.58;;
69615;Laerm;56821;52.486;4.680;2023-04-19T00:32:25;34.71;32.17;37.58;;
69615;Laerm;56821;52.486;4.680;2023-04-19T00:32:35;36.52;33.50;41.04;;
69615;Laerm;56821;52.486;4.680;2023-04-19T00:32:46;35.47;32.48;40.23;;
69615;Laerm;56821;52.486;4.680;2023-04-19T00:32:56;34.10;31.39;36.97;;
69615;Laerm;56821;52.486;4.680;2023-04-19T00:33:06;33.36;31.17;35.81;;
69615;Laerm;56821;52.486;4.680;2023-04-19T00:33:21;32.22;30.46;35.50;;
69615;Laerm;56821;52.486;4.680;2023-04-19T00:33:32;32.90;30.67;39.81;;
69615;Laerm;56821;52.486;4.680;2023-04-19T00:33:42;35.10;31.50;41.25;;
69615;Laerm;56821;52.486;4.680;2023-04-19T00:33:52;33.73;31.29;36.13;;
69615;Laerm;56821;52.486;4.680;2023-04-19T00:34:02;33.45;31.17;36.68;;
69615;Laerm;56821;52.486;4.680;2023-04-19T00:34:12;33.08;30.44;35.62;;
69615;Laerm;56821;52.486;4.680;2023-04-19T00:34:23;36.03;33.17;41.58;;
69615;Laerm;56821;52.486;4.680;2023-04-19T00:34:33;36.52;32.35;42.63;;
69615;Laerm;56821;52.486;4.680;2023-04-19T00:34:43;36.80;32.60;44.24;;
69615;Laerm;56821;52.486;4.680;2023-04-19T00:34:53;34.61;31.62;38.87;;
69615;Laerm;56821;52.486;4.680;2023-04-19T00:35:04;34.20;31.73;38.62;;
69615;Laerm;56821;52.486;4.680;2023-04-19T00:35:14;35.91;31.48;41.28;;
69615;Laerm;56821;52.486;4.680;2023-04-19T00:35:24;36.18;33.96;38.79;;
69615;Laerm;56821;52.486;4.680;2023-04-19T00:35:34;36.18;34.25;39.04;;
69615;Laerm;56821;52.486;4.680;2023-04-19T00:35:45;37.27;35.07;39.54;;
69615;Laerm;56821;52.486;4.680;2023-04-19T00:35:55;39.18;34.69;45.97;;
69615;Laerm;56821;52.486;4.680;2023-04-19T00:36:05;34.65;31.95;38.16;;
69615;Laerm;56821;52.486;4.680;2023-04-19T00:36:15;33.86;31.93;36.06;;
69615;Laerm;56821;52.486;4.680;2023-04-19T00:36:25;34.19;31.85;38.15;;
69615;Laerm;56821;52.486;4.680;2023-04-19T00:36:36;38.81;33.10;44.66;;
69615;Laerm;56821;52.486;4.680;2023-04-19T00:36:46;36.43;32.48;43.59;;
69615;Laerm;56821;52.486;4.680;2023-04-19T00:36:56;38.04;34.73;44.97;;
69615;Laerm;56821;52.486;4.680;2023-04-19T00:37:07;34.45;32.20;38.24;;
69615;Laerm;56821;52.486;4.680;2023-04-19T00:37:18;33.40;31.64;36.15;;
69615;Laerm;56821;52.486;4.680;2023-04-19T00:37:28;33.60;31.99;35.67;;
69615;Laerm;56821;52.486;4.680;2023-04-19T00:37:38;38.21;33.48;43.99;;
69615;Laerm;56821;52.486;4.680;2023-04-19T00:37:48;40.27;36.36;43.48;;
69615;Laerm;56821;52.486;4.680;2023-04-19T00:37:58;46.21;37.95;57.48;;
69615;Laerm;56821;52.486;4.680;2023-04-19T00:38:09;44.83;34.93;54.37;;
69615;Laerm;56821;52.486;4.680;2023-04-19T00:38:19;43.05;34.52;53.03;;
69615;Laerm;56821;52.486;4.680;2023-04-19T00:38:29;39.52;33.18;45.98;;
69615;Laerm;56821;52.486;4.680;2023-04-19T00:38:39;39.71;32.54;47.05;;
69615;Laerm;56821;52.486;4.680;2023-04-19T00:38:50;36.09;31.80;43.39;;
69615;Laerm;56821;52.486;4.680;2023-04-19T00:39:00;34.23;31.20;39.54;;
69615;Laerm;56821;52.486;4.680;2023-04-19T00:39:10;34.88;30.73;41.25;;
69615;Laerm;56821;52.486;4.680;2023-04-19T00:39:21;34.06;31.00;40.15;;
69615;Laerm;56821;52.486;4.680;2023-04-19T00:39:31;33.64;31.10;39.40;;
69615;Laerm;56821;52.486;4.680;2023-04-19T00:39:41;33.57;31.50;37.39;;
69615;Laerm;56821;52.486;4.680;2023-04-19T00:39:51;34.69;31.47;39.35;;
69615;Laerm;56821;52.486;4.680;2023-04-19T00:40:02;34.04;31.05;39.01;;
69615;Laerm;56821;52.486;4.680;2023-04-19T00:40:13;32.63;30.40;36.04;;
69615;Laerm;56821;52.486;4.680;2023-04-19T00:40:23;33.45;30.29;37.80;;
69615;Laerm;56821;52.486;4.680;2023-04-19T00:40:34;33.36;31.19;36.39;;
69615;Laerm;56821;52.486;4.680;2023-04-19T00:40:45;33.27;31.40;36.07;;
69615;Laerm;56821;52.486;4.680;2023-04-19T00:40:56;34.83;31.03;39.02;;
69615;Laerm;56821;52.486;4.680;2023-04-19T00:41:06;33.07;31.00;36.72;;
69615;Laerm;56821;52.486;4.680;2023-04-19T00:41:17;32.28;30.39;34.69;;
69615;Laerm;56821;52.486;4.680;2023-04-19T00:41:27;31.93;29.99;33.65;;
69615;Laerm;56821;52.486;4.680;2023-04-19T00:41:37;34.28;30.67;40.07;;
69615;Laerm;56821;52.486;4.680;2023-04-19T00:41:47;34.00;30.94;38.53;;
69615;Laerm;56821;52.486;4.680;2023-04-19T00:41:57;32.81;30.75;39.82;;
69615;Laerm;56821;52.486;4.680;2023-04-19T00:42:08;33.46;30.84;37.38;;
69615;Laerm;56821;52.486;4.680;2023-04-19T00:42:18;37.19;32.45;44.09;;
69615;Laerm;56821;52.486;4.680;2023-04-19T00:42:28;39.33;34.20;46.37;;
69615;Laerm;56821;52.486;4.680;2023-04-19T00:42:38;34.36;31.83;40.86;;
69615;Laerm;56821;52.486;4.680;2023-04-19T00:42:48;35.48;32.09;42.47;;
69615;Laerm;56821;52.486;4.680;2023-04-19T00:42:59;33.66;31.62;36.86;;
69615;Laerm;56821;52.486;4.680;2023-04-19T00:43:09;34.97;32.41;39.39;;
69615;Laerm;56821;52.486;4.680;2023-04-19T00:43:19;34.25;31.97;37.03;;
69615;Laerm;56821;52.486;4.680;2023-04-19T00:43:30;35.16;32.61;39.79;;
69615;Laerm;56821;52.486;4.680;2023-04-19T00:43:40;36.67;32.96;39.78;;
69615;Laerm;56821;52.486;4.680;2023-04-19T00:43:50;37.15;33.19;42.29;;
69615;Laerm;56821;52.486;4.680;2023-04-19T00:44:00;37.49;32.79;42.47;;
69615;Laerm;56821;52.486;4.680;2023-04-19T00:44:10;38.83;34.23;43.39;;
69615;Laerm;56821;52.486;4.680;2023-04-19T00:44:21;42.24;35.86;47.66;;
69615;Laerm;56821;52.486;4.680;2023-04-19T00:44:31;42.43;38.68;46.22;;
69615;Laerm;56821;52.486;4.680;2023-04-19T00:44:42;44.82;39.54;48.98;;
69615;Laerm;56821;52.486;4.680;2023-04-19T00:44:53;48.80;40.93;54.87;;
69615;Laerm;56821;52.486;4.680;2023-04-19T00:45:03;50.98;46.41;54.88;;
69615;Laerm;56821;52.486;4.680;2023-04-19T00:45:13;50.23;47.04;53.09;;
69615;Laerm;56821;52.486;4.680;2023-04-19T00:45:24;46.62;41.48;52.59;;
69615;Laerm;56821;52.486;4.680;2023-04-19T00:45:35;39.19;34.26;45.27;;
69615;Laerm;56821;52.486;4.680;2023-04-19T00:45:45;35.79;32.91;38.10;;
69615;Laerm;56821;52.486;4.680;2023-04-19T00:45:56;36.92;34.05;43.40;;
69615;Laerm;56821;52.486;4.680;2023-04-19T00:46:07;36.99;34.54;39.69;;
69615;Laerm;56821;52.486;4.680;2023-04-19T00:46:17;35.93;33.81;38.23;;
69615;Laerm;56821;52.486;4.680;2023-04-19T00:46:27;36.11;32.46;41.92;;
69615;Laerm;56821;52.486;4.680;2023-04-19T00:46:37;35.95;33.86;39.54;;
69615;Laerm;56821;52.486;4.680;2023-04-19T00:46:48;38.41;34.72;44.70;;
69615;Laerm;56821;52.486;4.680;2023-04-19T00:46:58;38.18;34.26;42.48;;
69615;Laerm;56821;52.486;4.680;2023-04-19T00:47:09;36.54;33.92;41.01;;
69615;Laerm;56821;52.486;4.680;2023-04-19T00:47:19;36.97;32.65;43.41;;
69615;Laerm;56821;52.486;4.680;2023-04-19T00:47:29;34.96;32.73;38.00;;
69615;Laerm;56821;52.486;4.680;2023-04-19T00:47:40;35.24;32.51;37.49;;
69615;Laerm;56821;52.486;4.680;2023-04-19T00:47:50;39.14;34.16;44.40;;
69615;Laerm;56821;52.486;4.680;2023-04-19T00:48:01;38.34;34.31;42.98;;
69615;Laerm;56821;52.486;4.680;2023-04-19T00:48:12;34.61;32.39;36.97;;
69615;Laerm;56821;52.486;4.680;2023-04-19T00:48:22;39.11;33.40;47.68;;
69615;Laerm;56821;52.486;4.680;2023-04-19T00:48:33;35.60;33.27;38.47;;
69615;Laerm;56821;52.486;4.680;2023-04-19T00:48:45;36.09;32.77;40.96;;
69615;Laerm;56821;52.486;4.680;2023-04-19T00:48:55;35.29;32.96;38.42;;
69615;Laerm;56821;52.486;4.680;2023-04-19T00:49:06;35.40;32.39;39.83;;
69615;Laerm;56821;52.486;4.680;2023-04-19T00:49:16;38.14;34.53;43.42;;
69615;Laerm;56821;52.486;4.680;2023-04-19T00:49:27;36.50;33.07;39.06;;
69615;Laerm;56821;52.486;4.680;2023-04-19T00:49:37;34.94;32.16;40.03;;
69615;Laerm;56821;52.486;4.680;2023-04-19T00:49:47;35.35;32.52;38.72;;
69615;Laerm;56821;52.486;4.680;2023-04-19T00:49:57;33.54;31.39;37.77;;
69615;Laerm;56821;52.486;4.680;2023-04-19T00:50:08;32.84;30.36;37.08;;
69615;Laerm;56821;52.486;4.680;2023-04-19T00:50:18;32.33;30.11;36.57;;
69615;Laerm;56821;52.486;4.680;2023-04-19T00:50:29;32.63;30.63;35.44;;
69615;Laerm;56821;52.486;4.680;2023-04-19T00:50:39;31.79;30.30;42.30;;
69615;Laerm;56821;52.486;4.680;2023-04-19T00:50:50;32.83;29.83;36.67;;
69615;Laerm;56821;52.486;4.680;2023-04-19T00:51:01;34.39;31.44;39.91;;
69615;Laerm;56821;52.486;4.680;2023-04-19T00:51:11;33.75;31.06;37.33;;
69615;Laerm;56821;52.486;4.680;2023-04-19T00:51:22;33.65;31.96;36.16;;
69615;Laerm;56821;52.486;4.680;2023-04-19T00:51:32;33.36;31.45;35.23;;
69615;Laerm;56821;52.486;4.680;2023-04-19T00:51:43;33.24;30.88;38.03;;
69615;Laerm;56821;52.486;4.680;2023-04-19T00:51:53;34.50;31.61;37.78;;
69615;Laerm;56821;52.486;4.680;2023-04-19T00:52:03;32.68;31.02;35.65;;
69615;Laerm;56821;52.486;4.680;2023-04-19T00:52:14;32.47;30.33;35.49;;
69615;Laerm;56821;52.486;4.680;2023-04-19T00:52:24;35.22;31.90;40.73;;
69615;Laerm;56821;52.486;4.680;2023-04-19T00:52:34;33.41;31.21;37.46;;
69615;Laerm;56821;52.486;4.680;2023-04-19T00:52:45;35.25;32.22;41.95;;
69615;Laerm;56821;52.486;4.680;2023-04-19T00:52:56;35.47;31.68;41.59;;
69615;Laerm;56821;52.486;4.680;2023-04-19T00:53:06;35.96;31.90;41.52;;
69615;Laerm;56821;52.486;4.680;2023-04-19T00:53:16;31.94;30.14;34.60;;
69615;Laerm;56821;52.486;4.680;2023-04-19T00:53:27;32.25;30.12;34.52;;
69615;Laerm;56821;52.486;4.680;2023-04-19T00:53:37;31.63;29.66;33.68;;
69615;Laerm;56821;52.486;4.680;2023-04-19T00:53:47;31.70;29.97;33.98;;
69615;Laerm;56821;52.486;4.680;2023-04-19T00:53:58;31.49;29.70;36.05;;
69615;Laerm;56821;52.486;4.680;2023-04-19T00:54:08;32.13;30.43;35.11;;
69615;Laerm;56821;52.486;4.680;2023-04-19T00:54:19;32.80;30.35;37.45;;
69615;Laerm;56821;52.486;4.680;2023-04-19T00:54:29;34.23;32.08;37.57;;
69615;Laerm;56821;52.486;4.680;2023-04-19T00:54:40;33.94;31.40;38.14;;
69615;Laerm;56821;52.486;4.680;2023-04-19T00:54:52;31.91;30.30;34.34;;
69615;Laerm;56821;52.486;4.680;2023-04-19T00:55:03;32.71;30.58;36.29;;
69615;Laerm;56821;52.486;4.680;2023-04-19T00:55:13;33.81;31.81;38.85;;
69615;Laerm;56821;52.486;4.680;2023-04-19T00:55:23;33.40;31.58;36.82;;
69615;Laerm;56821;52.486;4.680;2023-04-19T00:55:34;33.39;31.47;46.56;;
69615;Laerm;56821;52.486;4.680;2023-04-19T00:55:44;35.47;31.69;41.73;;
69615;Laerm;56821;52.486;4.680;2023-04-19T00:55:54;37.65;34.22;42.51;;
69615;Laerm;56821;52.486;4.680;2023-04-19T00:56:06;36.79;34.57;42.21;;
69615;Laerm;56821;52.486;4.680;2023-04-19T00:56:17;34.82;32.39;38.05;;
69615;Laerm;56821;52.486;4.680;2023-04-19T00:56:28;37.12;32.09;44.52;;
69615;Laerm;56821;52.486;4.680;2023-04-19T00:56:38;34.56;32.16;37.74;;
69615;Laerm;56821;52.486;4.680;2023-04-19T00:56:49;32.52;30.80;35.17;;
69615;Laerm;56821;52.486;4.680;2023-04-19T00:57:00;32.12;30.39;35.90;;
69615;Laerm;56821;52.486;4.680;2023-04-19T00:57:10;33.01;30.19;44.24;;
69615;Laerm;56821;52.486;4.680;2023-04-19T00:57:20;35.31;31.84;39.02;;
69615;Laerm;56821;52.486;4.680;2023-04-19T00:57:31;32.51;30.12;34.53;;
69615;Laerm;56821;52.486;4.680;2023-04-19T00:57:41;31.84;30.46;34.29;;
69615;Laerm;56821;52.486;4.680;2023-04-19T00:57:53;31.53;29.93;33.18;;
69615;Laerm;56821;52.486;4.680;2023-04-19T00:58:04;33.87;30.92;37.00;;
69615;Laerm;56821;52.486;4.680;2023-04-19T00:58:15;35.55;32.43;41.98;;
69615;Laerm;56821;52.486;4.680;2023-04-19T00:58:26;34.62;31.90;39.75;;
69615;Laerm;56821;52.486;4.680;2023-04-19T00:58:39;32.35;30.43;37.15;;